Time;durP1;ratioP1;P1;durP2;ratioP2;P2;SDS_P1;SDS_P2;PMS_P1;PMS_P2;Temp;Humidity;BMP_temperature;BMP_pressure;BME280_temperature;BME280_humidity;BME280_pressure;Samples;Min_cycle;Max_cycle;Signal;HPM_P1;HPM_P2
2023/05/06 00:00:21;;;;;;;1.47;1.37;;;14.00;99.90;;;;;;5077121;28;20471;-83
2023/05/06 00:02:48;;;;;;;0.60;0.60;;;14.00;99.90;;;;;;5076692;28;20503;-83
2023/05/06 00:05:17;;;;;;;1.47;0.80;;;14.10;99.90;;;;;;5076922;28;20449;-84
2023/05/06 00:07:44;;;;;;;1.53;0.80;;;14.10;99.90;;;;;;5077667;28;20454;-84
2023/05/06 00:10:10;;;;;;;4.60;0.93;;;14.00;99.90;;;;;;5076751;28;20508;-83
2023/05/06 00:12:37;;;;;;;0.87;0.87;;;14.00;99.90;;;;;;5076679;28;20497;-84
2023/05/06 00:15:05;;;;;;;0.80;0.80;;;14.10;99.90;;;;;;5076731;28;20454;-83
2023/05/06 00:17:33;;;;;;;0.80;0.80;;;14.00;99.90;;;;;;5076677;28;20456;-83
2023/05/06 00:20:00;;;;;;;1.20;0.80;;;14.00;99.90;;;;;;5076600;28;20472;-83
2023/05/06 00:22:27;;;;;;;3.30;1.20;;;14.00;99.90;;;;;;5076193;28;21009;-83
2023/05/06 00:24:53;;;;;;;0.60;0.60;;;14.00;99.90;;;;;;5076503;28;20458;-84
2023/05/06 00:27:20;;;;;;;3.50;0.80;;;13.90;99.90;;;;;;5076171;28;20941;-84
2023/05/06 00:29:47;;;;;;;0.90;0.80;;;13.90;99.90;;;;;;5076362;28;20492;-83
2023/05/06 00:32:14;;;;;;;1.43;0.90;;;13.80;99.90;;;;;;5076317;28;20465;-83
2023/05/06 00:34:42;;;;;;;1.23;0.70;;;13.80;99.90;;;;;;5076327;28;20449;-83
2023/05/06 00:37:09;;;;;;;1.20;0.77;;;13.80;99.90;;;;;;5076303;28;20453;-83
2023/05/06 00:39:36;;;;;;;0.77;0.77;;;13.80;99.90;;;;;;5075919;28;20811;-83
2023/05/06 00:42:03;;;;;;;0.60;0.60;;;13.80;99.90;;;;;;5076162;28;20473;-83
2023/05/06 00:44:30;;;;;;;4.10;0.80;;;13.70;99.90;;;;;;5075922;28;20800;-83
2023/05/06 00:46:58;;;;;;;0.63;0.60;;;13.80;99.90;;;;;;5075818;28;20449;-83
2023/05/06 00:49:26;;;;;;;1.37;1.27;;;13.80;99.90;;;;;;5076019;28;20487;-84
2023/05/06 00:51:55;;;;;;;0.93;0.90;;;13.80;99.90;;;;;;5075720;28;20972;-83
2023/05/06 00:54:21;;;;;;;0.70;0.70;;;13.80;99.90;;;;;;5075207;28;20449;-83
2023/05/06 00:56:48;;;;;;;0.93;0.57;;;13.80;99.90;;;;;;5075965;28;20456;-83
2023/05/06 00:59:15;;;;;;;0.87;0.70;;;13.70;99.90;;;;;;5075910;28;20453;-83
2023/05/06 01:01:42;;;;;;;0.93;0.93;;;13.80;99.90;;;;;;5075536;28;20492;-83
2023/05/06 01:04:09;;;;;;;0.60;0.60;;;13.80;99.90;;;;;;5075807;28;20449;-83
2023/05/06 01:06:45;;;;;;;0.70;0.70;;;13.70;99.90;;;;;;5075478;28;20968;-83
2023/05/06 01:09:20;;;;;;;0.80;0.80;;;13.80;99.90;;;;;;5075806;28;20469;-83
2023/05/06 01:11:52;;;;;;;0.60;0.57;;;13.70;99.90;;;;;;5075658;28;20465;-83
2023/05/06 01:14:26;;;;;;;0.70;0.60;;;13.60;99.90;;;;;;5075703;28;20437;-83
2023/05/06 01:16:58;;;;;;;1.40;1.30;;;13.60;99.90;;;;;;5075659;28;20433;-83
2023/05/06 01:19:37;;;;;;;0.77;0.77;;;13.50;99.90;;;;;;5075589;28;20495;-83
2023/05/06 01:22:06;;;;;;;1.23;0.70;;;13.50;99.90;;;;;;5075159;28;20469;-83
2023/05/06 01:24:39;;;;;;;0.80;0.80;;;13.50;99.90;;;;;;5075495;28;20450;-83
2023/05/06 01:27:06;;;;;;;0.90;0.90;;;13.50;99.90;;;;;;5075427;28;20450;-83
2023/05/06 01:29:35;;;;;;;1.17;0.60;;;13.50;99.90;;;;;;5075012;28;20481;-83
2023/05/06 01:32:22;;;;;;;0.80;0.70;;;13.50;99.90;;;;;;5075862;28;20476;-83
2023/05/06 01:34:55;;;;;;;2.40;1.10;;;13.50;99.90;;;;;;5064719;28;20480;-83
2023/05/06 01:37:30;;;;;;;2.40;0.80;;;13.50;99.90;;;;;;5075282;28;20578;-83
2023/05/06 01:40:00;;;;;;;0.80;0.80;;;13.50;99.90;;;;;;5075217;28;20441;-83
2023/05/06 01:42:27;;;;;;;0.70;0.70;;;13.50;99.90;;;;;;5075340;28;20472;-83
2023/05/06 01:44:56;;;;;;;0.70;0.70;;;13.50;99.90;;;;;;5075044;28;20454;-83
2023/05/06 01:47:24;;;;;;;1.13;0.60;;;13.50;99.90;;;;;;5075353;28;20430;-83
2023/05/06 01:49:50;;;;;;;0.90;0.70;;;13.50;99.90;;;;;;5074876;28;20486;-83
2023/05/06 01:52:17;;;;;;;0.70;0.60;;;13.60;99.90;;;;;;5074627;28;20465;-83
2023/05/06 01:54:44;;;;;;;0.70;0.57;;;13.50;99.90;;;;;;5074835;28;20445;-83
2023/05/06 01:57:12;;;;;;;2.20;1.00;;;13.50;99.90;;;;;;5074541;28;20438;-83
2023/05/06 01:59:39;;;;;;;1.00;0.90;;;13.50;99.90;;;;;;5074739;28;20450;-83
2023/05/06 02:02:06;;;;;;;3.60;0.93;;;13.50;99.90;;;;;;5074432;28;20492;-84
2023/05/06 02:04:33;;;;;;;1.33;0.70;;;13.50;99.90;;;;;;5074233;28;20479;-84
2023/05/06 02:07:00;;;;;;;0.60;0.60;;;13.50;99.90;;;;;;5074586;28;20449;-84
2023/05/06 02:09:27;;;;;;;0.67;0.67;;;13.50;99.90;;;;;;5074502;28;20453;-83
2023/05/06 02:11:53;;;;;;;0.60;0.60;;;13.50;99.90;;;;;;5074437;28;20466;-83
2023/05/06 02:14:22;;;;;;;1.47;1.20;;;13.50;99.90;;;;;;5074478;28;20539;-83
2023/05/06 02:16:48;;;;;;;1.40;0.70;;;13.50;99.90;;;;;;5074475;28;20449;-83
2023/05/06 02:19:15;;;;;;;0.67;0.63;;;13.50;99.90;;;;;;5074063;28;20963;-83
2023/05/06 02:21:42;;;;;;;1.03;0.80;;;13.50;99.90;;;;;;5073926;28;20465;-83
2023/05/06 02:24:09;;;;;;;7.87;1.20;;;13.50;99.90;;;;;;5074333;28;20824;-84
2023/05/06 02:26:35;;;;;;;1.20;1.10;;;13.50;99.90;;;;;;5074511;28;20456;-83
2023/05/06 02:29:02;;;;;;;1.30;1.20;;;13.40;99.90;;;;;;5073936;28;20528;-84
2023/05/06 02:31:30;;;;;;;1.60;0.73;;;13.40;99.90;;;;;;5073987;28;20482;-84
2023/05/06 02:33:57;;;;;;;1.27;0.50;;;13.40;99.90;;;;;;5074108;28;20453;-83
2023/05/06 02:36:24;;;;;;;0.87;0.73;;;13.40;99.90;;;;;;5074059;28;20441;-83
2023/05/06 02:38:51;;;;;;;0.80;0.80;;;13.40;99.90;;;;;;5074014;28;20446;-83
2023/05/06 02:41:17;;;;;;;3.83;1.00;;;13.40;99.90;;;;;;5073571;28;20445;-83
2023/05/06 02:43:44;;;;;;;0.70;0.70;;;13.30;99.90;;;;;;5073595;28;20487;-83
2023/05/06 02:46:11;;;;;;;0.80;0.80;;;13.40;99.90;;;;;;5073813;28;20445;-83
2023/05/06 02:48:39;;;;;;;1.17;1.07;;;13.40;99.90;;;;;;5073818;28;20452;-83
2023/05/06 02:51:06;;;;;;;0.97;0.97;;;13.40;99.90;;;;;;5073481;28;20485;-83
2023/05/06 02:53:33;;;;;;;1.27;0.90;;;13.40;99.90;;;;;;5073764;28;20469;-83
2023/05/06 02:55:59;;;;;;;1.50;0.80;;;13.40;99.90;;;;;;5073766;28;20450;-83
2023/05/06 02:58:26;;;;;;;1.50;0.70;;;13.40;99.90;;;;;;5073743;28;20440;-83
2023/05/06 03:00:53;;;;;;;1.30;1.20;;;13.40;99.90;;;;;;5073652;28;20441;-83
2023/05/06 03:03:20;;;;;;;2.40;1.30;;;13.40;99.90;;;;;;5073911;28;20466;-83
2023/05/06 03:05:48;;;;;;;1.60;0.90;;;13.40;99.90;;;;;;5073311;28;20445;-83
2023/05/06 03:08:15;;;;;;;0.90;0.83;;;13.30;99.90;;;;;;5073626;28;20449;-83
2023/05/06 03:10:42;;;;;;;1.00;0.83;;;13.30;99.90;;;;;;5073468;28;20825;-83
2023/05/06 03:13:09;;;;;;;0.87;0.87;;;13.40;99.90;;;;;;5074927;28;20484;-83
2023/05/06 03:15:35;;;;;;;0.93;0.70;;;13.50;99.90;;;;;;5072742;28;20456;-83
2023/05/06 03:18:02;;;;;;;1.03;1.00;;;13.40;99.90;;;;;;5073497;28;20476;-83
2023/05/06 03:20:29;;;;;;;0.73;0.73;;;13.40;99.90;;;;;;5073141;28;20450;-83
2023/05/06 03:22:57;;;;;;;1.63;1.20;;;13.30;99.90;;;;;;5073363;28;20469;-83
2023/05/06 03:25:24;;;;;;;2.77;1.10;;;13.30;99.90;;;;;;5073084;28;20944;-83
2023/05/06 03:27:50;;;;;;;0.80;0.77;;;13.30;99.90;;;;;;5073338;28;20454;-83
2023/05/06 03:30:17;;;;;;;1.43;0.73;;;13.20;99.90;;;;;;5073245;28;20485;-83
2023/05/06 03:32:45;;;;;;;1.27;1.03;;;13.10;99.90;;;;;;5073239;28;20480;-83
2023/05/06 03:35:12;;;;;;;1.07;0.97;;;13.10;99.90;;;;;;5073240;28;20459;-83
2023/05/06 03:37:39;;;;;;;0.90;0.80;;;13.10;99.90;;;;;;5073273;28;20450;-83
2023/05/06 03:40:09;;;;;;;2.77;1.27;;;13.00;99.90;;;;;;5073260;28;20442;-83
2023/05/06 03:42:35;;;;;;;1.00;0.90;;;13.00;99.90;;;;;;5073113;28;20461;-83
2023/05/06 03:45:02;;;;;;;2.37;1.37;;;13.00;99.90;;;;;;5072966;28;20450;-83
2023/05/06 03:47:29;;;;;;;1.40;1.13;;;13.00;99.90;;;;;;5073430;28;20454;-83
2023/05/06 03:49:56;;;;;;;2.10;0.77;;;12.90;99.90;;;;;;5073022;28;20465;-83
2023/05/06 03:52:23;;;;;;;0.90;0.80;;;12.90;99.90;;;;;;5073172;28;20496;-83
2023/05/06 03:54:49;;;;;;;1.10;1.00;;;12.90;99.90;;;;;;5073099;28;20462;-83
2023/05/06 03:57:17;;;;;;;4.03;1.40;;;13.00;99.90;;;;;;5073081;28;20442;-83
2023/05/06 03:59:44;;;;;;;1.33;0.90;;;12.90;99.90;;;;;;5073045;28;20449;-83
2023/05/06 04:02:11;;;;;;;2.53;1.33;;;12.80;99.90;;;;;;5072868;28;20849;-83
2023/05/06 04:04:37;;;;;;;1.00;1.00;;;12.80;99.90;;;;;;5072696;28;20441;-83
2023/05/06 04:07:04;;;;;;;1.83;1.47;;;12.70;99.90;;;;;;5072946;28;20446;-83
2023/05/06 04:09:32;;;;;;;1.30;0.90;;;12.70;99.90;;;;;;5072940;28;20536;-83
2023/05/06 04:11:58;;;;;;;1.57;1.20;;;12.70;99.90;;;;;;5072755;28;20500;-82
2023/05/06 04:14:26;;;;;;;3.80;1.37;;;12.60;99.90;;;;;;5073082;28;20437;-83
2023/05/06 04:16:54;;;;;;;3.10;1.30;;;12.60;99.90;;;;;;5072902;28;20532;-83
2023/05/06 04:19:21;;;;;;;1.00;1.00;;;12.60;99.90;;;;;;5072831;28;20477;-83
2023/05/06 04:21:48;;;;;;;1.00;0.80;;;12.60;99.90;;;;;;5072820;28;20473;-83
2023/05/06 04:24:15;;;;;;;1.20;0.80;;;12.60;99.90;;;;;;5072680;28;20984;-83
2023/05/06 04:26:42;;;;;;;2.20;1.20;;;12.60;99.90;;;;;;5072919;28;20454;-83
2023/05/06 04:29:09;;;;;;;1.20;1.10;;;12.60;99.90;;;;;;5076948;28;20521;-83
2023/05/06 04:31:37;;;;;;;0.60;0.60;;;12.60;99.90;;;;;;5076332;28;20496;-83
2023/05/06 04:34:04;;;;;;;3.80;1.27;;;12.60;99.90;;;;;;5076387;28;20541;-83
2023/05/06 04:36:31;;;;;;;1.57;1.20;;;12.60;99.90;;;;;;5076100;28;20799;-83
2023/05/06 04:38:57;;;;;;;1.00;1.00;;;12.60;99.90;;;;;;5076531;28;20441;-83
2023/05/06 04:41:24;;;;;;;1.30;1.00;;;12.50;99.90;;;;;;5076410;28;20445;-83
2023/05/06 04:43:51;;;;;;;1.50;1.40;;;12.60;99.90;;;;;;5076201;28;20453;-83
2023/05/06 04:46:18;;;;;;;1.40;1.30;;;12.60;99.90;;;;;;5076168;28;20483;-83
2023/05/06 04:48:46;;;;;;;1.83;1.30;;;12.60;99.90;;;;;;5076121;28;20449;-83
2023/05/06 04:51:13;;;;;;;1.70;1.40;;;12.70;99.90;;;;;;5075631;28;20859;-83
2023/05/06 04:53:40;;;;;;;1.73;1.13;;;12.70;99.90;;;;;;5076342;28;20449;-83
2023/05/06 04:56:07;;;;;;;1.60;1.50;;;12.80;99.90;;;;;;5075977;28;20445;-83
2023/05/06 04:58:33;;;;;;;1.10;0.73;;;12.80;99.90;;;;;;5076065;28;20456;-83
2023/05/06 05:01:04;;;;;;;1.73;1.00;;;12.90;99.90;;;;;;5075664;28;20453;-83
2023/05/06 05:03:33;;;;;;;2.20;1.17;;;13.00;99.90;;;;;;5075472;28;20866;-84
2023/05/06 05:06:01;;;;;;;1.10;0.87;;;13.00;99.90;;;;;;5075618;28;20955;-83
2023/05/06 05:08:28;;;;;;;1.87;1.00;;;13.10;99.90;;;;;;5075502;28;20448;-84
2023/05/06 05:10:54;;;;;;;1.60;1.23;;;13.10;99.90;;;;;;5076297;28;20481;-84
2023/05/06 05:13:21;;;;;;;1.23;1.13;;;13.30;99.90;;;;;;5075655;28;20476;-84
2023/05/06 05:15:48;;;;;;;0.97;0.80;;;13.30;99.90;;;;;;5075543;28;20441;-84
2023/05/06 05:18:14;;;;;;;4.13;1.43;;;13.30;99.90;;;;;;5075478;28;20941;-84
2023/05/06 05:20:41;;;;;;;1.30;1.07;;;13.40;99.90;;;;;;5075591;28;20477;-84
2023/05/06 05:23:10;;;;;;;1.40;1.20;;;13.60;99.90;;;;;;5075442;28;20465;-83
2023/05/06 05:25:36;;;;;;;0.90;0.90;;;13.60;99.90;;;;;;5075457;28;20464;-83
2023/05/06 05:28:03;;;;;;;1.53;1.20;;;13.70;99.90;;;;;;5075487;28;20460;-84
2023/05/06 05:30:30;;;;;;;1.00;1.00;;;13.70;99.90;;;;;;5075538;28;20445;-83
2023/05/06 05:32:59;;;;;;;1.90;1.13;;;13.70;99.90;;;;;;5075268;28;20851;-84
2023/05/06 05:35:26;;;;;;;3.13;1.33;;;13.70;99.90;;;;;;5075265;28;20449;-84
2023/05/06 05:37:52;;;;;;;0.77;0.77;;;13.80;99.90;;;;;;5075261;28;20460;-83
2023/05/06 05:40:21;;;;;;;1.50;1.27;;;13.80;99.90;;;;;;5074094;28;20445;-83
2023/05/06 05:42:47;;;;;;;0.67;0.67;;;13.90;99.90;;;;;;5074782;28;20988;-83
2023/05/06 05:45:14;;;;;;;1.30;1.20;;;14.00;99.90;;;;;;5075881;28;20450;-83
2023/05/06 05:47:41;;;;;;;1.07;0.97;;;14.00;99.90;;;;;;5075012;28;20441;-83
2023/05/06 05:50:08;;;;;;;0.80;0.77;;;14.10;99.90;;;;;;5074707;28;20434;-83
2023/05/06 05:52:35;;;;;;;1.67;1.23;;;14.30;99.90;;;;;;5074901;28;20485;-83
2023/05/06 05:55:02;;;;;;;0.70;0.70;;;14.40;99.90;;;;;;5074592;28;20968;-83
2023/05/06 05:57:30;;;;;;;3.27;0.90;;;14.60;99.90;;;;;;5074869;28;20449;-84
2023/05/06 05:59:57;;;;;;;1.53;0.70;;;14.80;99.90;;;;;;5074675;28;20473;-83
2023/05/06 06:02:24;;;;;;;0.70;0.70;;;15.10;99.90;;;;;;5074359;28;20999;-83
2023/05/06 06:04:50;;;;;;;0.93;0.70;;;15.40;99.90;;;;;;5074621;28;20461;-83
2023/05/06 06:07:17;;;;;;;0.70;0.70;;;15.50;99.90;;;;;;5074341;28;20913;-84
2023/05/06 06:09:45;;;;;;;0.70;0.67;;;15.50;99.90;;;;;;5075515;28;20807;-84
2023/05/06 06:12:12;;;;;;;1.30;0.73;;;15.60;99.90;;;;;;5074472;28;20496;-83
2023/05/06 06:14:40;;;;;;;1.00;0.90;;;15.70;99.90;;;;;;5074200;28;20434;-83
2023/05/06 06:17:07;;;;;;;0.90;0.90;;;16.00;99.90;;;;;;5074458;28;20552;-83
2023/05/06 06:19:33;;;;;;;1.07;1.00;;;16.30;99.90;;;;;;5074092;28;20456;-83
2023/05/06 06:22:00;;;;;;;2.30;0.87;;;16.70;99.90;;;;;;5074302;28;20465;-83
2023/05/06 06:24:27;;;;;;;1.83;0.80;;;17.00;99.90;;;;;;5074330;28;20430;-83
2023/05/06 06:26:54;;;;;;;1.43;1.07;;;17.30;99.90;;;;;;5074216;28;20446;-82
2023/05/06 06:29:20;;;;;;;1.00;0.67;;;17.60;99.90;;;;;;5073943;28;20453;-83
2023/05/06 06:31:48;;;;;;;3.03;1.00;;;17.70;99.90;;;;;;5074011;28;20516;-83
2023/05/06 06:34:15;;;;;;;1.43;0.80;;;17.80;99.90;;;;;;5074327;28;20419;-83
2023/05/06 06:36:44;;;;;;;0.60;0.60;;;18.00;99.90;;;;;;5074033;28;20438;-82
2023/05/06 06:39:10;;;;;;;0.80;0.70;;;18.00;99.90;;;;;;5074120;28;20511;-83
2023/05/06 06:41:37;;;;;;;0.57;0.57;;;18.20;99.90;;;;;;5074337;28;20465;-83
2023/05/06 06:44:04;;;;;;;2.03;0.83;;;18.40;99.90;;;;;;5073977;28;20438;-83
2023/05/06 06:46:31;;;;;;;0.80;0.80;;;18.60;99.90;;;;;;5073972;28;20540;-83
2023/05/06 06:49:00;;;;;;;0.87;0.87;;;18.90;99.90;;;;;;5073541;28;20448;-82
2023/05/06 06:51:27;;;;;;;3.13;0.70;;;19.00;99.90;;;;;;5073728;28;20515;-82
2023/05/06 06:53:54;;;;;;;0.57;0.57;;;19.40;99.90;;;;;;5073787;28;20453;-82
2023/05/06 06:56:21;;;;;;;0.80;0.80;;;19.90;99.90;;;;;;5073962;28;20445;-83
2023/05/06 06:58:48;;;;;;;1.43;1.20;;;20.40;99.90;;;;;;5073632;28;20952;-83
2023/05/06 07:01:15;;;;;;;0.97;0.90;;;21.10;99.90;;;;;;5073176;28;20479;-83
2023/05/06 07:03:42;;;;;;;1.00;0.80;;;21.90;99.90;;;;;;5073413;28;20446;-83
2023/05/06 07:06:10;;;;;;;1.03;1.03;;;22.50;99.90;;;;;;5073644;28;20441;-83
2023/05/06 07:08:36;;;;;;;0.70;0.70;;;23.10;99.90;;;;;;5073620;28;20830;-83
2023/05/06 07:11:03;;;;;;;0.73;0.73;;;23.70;99.90;;;;;;5073663;28;20885;-83
2023/05/06 07:13:30;;;;;;;1.70;1.23;;;24.10;99.90;;;;;;5073470;28;20855;-83
2023/05/06 07:15:57;;;;;;;1.00;1.00;;;23.80;99.90;;;;;;5073563;28;20218;-83
2023/05/06 07:18:24;;;;;;;1.17;0.63;;;23.90;99.90;;;;;;5073234;28;20678;-83
2023/05/06 07:20:51;;;;;;;0.63;0.63;;;24.30;99.90;;;;;;5073208;28;20209;-83
2023/05/06 07:23:19;;;;;;;0.70;0.70;;;24.90;99.90;;;;;;5073325;28;20227;-84
2023/05/06 07:25:45;;;;;;;3.95;1.00;;;25.30;99.90;;;;;;5073393;28;20209;-83
2023/05/06 07:28:12;;;;;;;0.57;0.57;;;25.90;99.90;;;;;;5073168;28;20559;-83
2023/05/06 07:30:39;;;;;;;0.70;0.70;;;26.50;99.90;;;;;;5073373;28;20198;-83
2023/05/06 07:33:06;;;;;;;3.65;0.70;;;26.20;99.90;;;;;;5073223;28;20230;-83
2023/05/06 07:35:32;;;;;;;1.05;0.60;;;25.30;99.90;;;;;;5073004;28;20207;-83
2023/05/06 07:37:59;;;;;;;1.08;0.70;;;24.20;99.90;;;;;;5073269;28;20205;-83
2023/05/06 07:40:27;;;;;;;0.70;0.70;;;23.20;99.90;;;;;;5073301;28;20206;-83
2023/05/06 07:42:54;;;;;;;1.05;0.70;;;22.20;99.90;;;;;;5073183;28;20218;-83
2023/05/06 07:45:22;;;;;;;0.70;0.70;;;21.40;99.90;;;;;;5073205;28;20198;-84
2023/05/06 07:47:49;;;;;;;0.80;0.80;;;21.00;99.90;;;;;;5073225;28;20217;-84
2023/05/06 07:50:16;;;;;;;0.70;0.70;;;21.30;99.90;;;;;;5073329;28;20313;-84
2023/05/06 07:52:43;;;;;;;0.60;0.60;;;22.50;99.90;;;;;;5073024;28;20237;-85
2023/05/06 07:55:10;;;;;;;0.73;0.73;;;23.90;99.90;;;;;;5072911;28;20205;-84
2023/05/06 07:57:38;;;;;;;0.70;0.70;;;25.30;99.90;;;;;;5073160;28;20186;-84
2023/05/06 08:00:08;;;;;;;0.90;0.80;;;26.60;99.90;;;;;;5073075;28;20211;-83
2023/05/06 08:02:35;;;;;;;0.77;0.63;;;28.00;97.10;;;;;;5074338;28;20234;-84
2023/05/06 08:05:06;;;;;;;0.60;0.60;;;29.40;94.40;;;;;;5077076;28;20205;-84
2023/05/06 08:07:33;;;;;;;0.93;0.55;;;30.70;91.30;;;;;;5077198;28;20552;-84
2023/05/06 08:10:00;;;;;;;0.70;0.60;;;31.60;86.30;;;;;;5076904;28;20206;-83
2023/05/06 08:12:27;;;;;;;0.95;0.70;;;32.30;79.80;;;;;;5076521;28;20591;-84
2023/05/06 08:14:55;;;;;;;0.70;0.70;;;32.40;74.10;;;;;;5076649;28;20199;-84
2023/05/06 08:17:21;;;;;;;0.73;0.73;;;31.10;74.30;;;;;;5076343;28;20741;-83
2023/05/06 08:19:48;;;;;;;0.50;0.50;;;29.20;76.80;;;;;;5076627;28;20207;-83
2023/05/06 08:22:16;;;;;;;0.52;0.50;;;27.40;82.80;;;;;;5076667;28;20222;-83
2023/05/06 08:24:43;;;;;;;0.60;0.55;;;25.90;86.90;;;;;;5076566;28;20289;-83
2023/05/06 08:27:09;;;;;;;0.60;0.60;;;24.60;90.50;;;;;;5076798;28;20297;-83
2023/05/06 08:29:36;;;;;;;0.98;0.70;;;23.50;92.30;;;;;;5076493;28;20209;-83
2023/05/06 08:32:05;;;;;;;1.58;0.73;;;22.70;93.40;;;;;;5076552;28;20253;-82
2023/05/06 08:34:33;;;;;;;0.50;0.50;;;22.10;95.50;;;;;;5076405;28;20230;-83
2023/05/06 08:37:00;;;;;;;0.63;0.63;;;21.60;97.30;;;;;;5076582;28;20207;-83
2023/05/06 08:39:27;;;;;;;0.65;0.60;;;21.20;97.70;;;;;;5076408;28;20191;-83
2023/05/06 08:41:56;;;;;;;0.70;0.70;;;21.20;98.30;;;;;;5076216;28;20272;-83
2023/05/06 08:44:24;;;;;;;0.70;0.70;;;21.30;99.60;;;;;;5076304;28;20206;-83
2023/05/06 08:46:51;;;;;;;0.57;0.50;;;21.60;99.10;;;;;;5076201;28;20242;-83
2023/05/06 08:49:19;;;;;;;0.60;0.50;;;21.90;98.40;;;;;;5076162;28;20203;-83
2023/05/06 08:51:49;;;;;;;0.50;0.50;;;22.30;97.60;;;;;;5075954;28;20231;-82
2023/05/06 08:54:17;;;;;;;0.43;0.43;;;22.50;96.80;;;;;;5076096;28;20199;-82
2023/05/06 08:56:47;;;;;;;0.50;0.50;;;22.80;96.50;;;;;;5076343;28;20202;-89
2023/05/06 08:59:15;;;;;;;0.70;0.70;;;22.70;95.10;;;;;;5076058;28;20191;-84
2023/05/06 09:01:42;;;;;;;0.73;0.70;;;22.40;96.70;;;;;;5075786;28;20276;-84
2023/05/06 09:04:10;;;;;;;0.50;0.50;;;22.20;96.70;;;;;;5075563;28;20686;-84
2023/05/06 09:06:38;;;;;;;0.80;0.80;;;22.10;96.50;;;;;;5075620;28;20195;-84
2023/05/06 09:09:05;;;;;;;1.37;0.60;;;21.80;97.80;;;;;;5075772;28;20453;-84
2023/05/06 09:11:32;;;;;;;0.80;0.80;;;21.50;97.20;;;;;;5075329;28;20813;-84
2023/05/06 09:14:10;;;;;;;0.60;0.60;;;21.20;97.50;;;;;;5074461;28;20445;-84
2023/05/06 09:16:37;;;;;;;0.60;0.60;;;21.00;99.70;;;;;;5075307;28;20445;-84
2023/05/06 09:19:05;;;;;;;0.43;0.43;;;20.80;99.90;;;;;;5075492;28;20967;-84
2023/05/06 09:21:36;;;;;;;0.60;0.60;;;20.70;99.90;;;;;;5075448;28;20449;-84
2023/05/06 09:24:07;;;;;;;0.70;0.70;;;20.50;99.90;;;;;;5075505;28;20456;-84
2023/05/06 09:26:35;;;;;;;2.87;0.67;;;20.30;99.90;;;;;;5075225;28;20948;-84
2023/05/06 09:29:03;;;;;;;0.73;0.60;;;20.10;99.90;;;;;;5075436;28;20437;-84
2023/05/06 09:31:30;;;;;;;0.60;0.60;;;20.00;99.90;;;;;;5075228;28;20460;-84
2023/05/06 09:33:58;;;;;;;1.10;1.00;;;19.90;99.90;;;;;;5075247;28;20494;-83
2023/05/06 09:36:27;;;;;;;0.50;0.50;;;20.10;99.90;;;;;;5075292;28;20453;-83
2023/05/06 09:38:55;;;;;;;0.87;0.70;;;20.50;99.90;;;;;;5075232;28;20446;-84
2023/05/06 09:41:25;;;;;;;0.60;0.60;;;20.70;99.90;;;;;;5075123;28;20463;-83
2023/05/06 09:43:52;;;;;;;0.60;0.60;;;21.00;99.90;;;;;;5075169;28;20481;-83
2023/05/06 09:46:19;;;;;;;0.60;0.60;;;21.20;99.90;;;;;;5075121;28;20483;-84
2023/05/06 09:48:46;;;;;;;0.60;0.60;;;21.40;99.20;;;;;;5074705;28;20456;-84
2023/05/06 09:51:13;;;;;;;0.50;0.50;;;21.70;98.50;;;;;;5074919;28;20820;-83
2023/05/06 09:53:43;;;;;;;0.60;0.60;;;21.80;98.30;;;;;;5074587;28;21030;-84
2023/05/06 09:56:11;;;;;;;0.50;0.50;;;21.80;98.00;;;;;;5074562;28;20905;-84
2023/05/06 09:58:40;;;;;;;0.90;0.70;;;22.00;97.80;;;;;;5074847;28;20452;-83
2023/05/06 10:01:08;;;;;;;1.63;0.70;;;22.10;97.90;;;;;;5075105;28;20893;-84
2023/05/06 10:03:36;;;;;;;0.50;0.50;;;22.20;96.00;;;;;;5074476;28;20548;-83
2023/05/06 10:06:05;;;;;;;0.63;0.60;;;22.20;97.00;;;;;;5074695;28;20476;-83
2023/05/06 10:08:33;;;;;;;0.50;0.50;;;22.30;94.90;;;;;;5074411;28;20433;-83
2023/05/06 10:11:01;;;;;;;0.67;0.67;;;22.30;97.30;;;;;;5074682;28;20449;-84
2023/05/06 10:13:29;;;;;;;0.60;0.60;;;22.40;97.50;;;;;;5074348;28;21003;-84
2023/05/06 10:16:00;;;;;;;1.30;0.70;;;22.40;95.20;;;;;;5074477;28;20453;-83
2023/05/06 10:18:32;;;;;;;0.40;0.40;;;22.50;95.10;;;;;;5074553;28;20455;-84
2023/05/06 10:21:00;;;;;;;0.73;0.60;;;22.60;94.80;;;;;;5074576;28;20425;-83
2023/05/06 10:23:36;;;;;;;1.70;0.60;;;22.60;93.60;;;;;;5074299;28;20492;-83
2023/05/06 10:26:06;;;;;;;0.80;0.80;;;22.50;94.00;;;;;;5074579;28;20436;-84
2023/05/06 10:28:39;;;;;;;0.67;0.60;;;22.50;93.80;;;;;;5074289;28;20278;-83
2023/05/06 10:31:11;;;;;;;0.80;0.63;;;22.60;95.70;;;;;;5074395;28;20434;-83
2023/05/06 10:33:38;;;;;;;0.50;0.50;;;22.70;95.90;;;;;;5074048;28;20464;-82
2023/05/06 10:36:15;;;;;;;0.50;0.50;;;22.80;94.20;;;;;;5074066;28;20453;-83
2023/05/06 10:38:45;;;;;;;0.50;0.50;;;22.70;94.20;;;;;;5074041;28;20437;-83
2023/05/06 10:41:13;;;;;;;0.70;0.67;;;22.50;94.40;;;;;;5073971;28;20852;-83
2023/05/06 10:43:41;;;;;;;3.47;0.60;;;22.10;94.30;;;;;;5073895;28;20826;-83
2023/05/06 10:46:11;;;;;;;0.97;0.73;;;21.80;95.80;;;;;;5073961;28;20819;-83
2023/05/06 10:48:39;;;;;;;1.00;0.60;;;21.60;94.60;;;;;;5074096;28;20449;-83
2023/05/06 10:51:26;;;;;;;0.50;0.40;;;21.80;95.00;;;;;;5073900;28;20484;-83
2023/05/06 10:54:02;;;;;;;0.80;0.80;;;22.20;94.80;;;;;;5073820;28;20493;-83
2023/05/06 10:56:31;;;;;;;1.43;0.60;;;22.60;93.20;;;;;;5073836;28;20197;-83
2023/05/06 10:59:00;;;;;;;1.17;0.60;;;22.80;93.70;;;;;;5073720;28;20449;-83
2023/05/06 11:01:28;;;;;;;0.50;0.50;;;23.10;90.80;;;;;;5073430;28;20230;-83
2023/05/06 11:03:55;;;;;;;0.60;0.60;;;23.30;91.10;;;;;;5073671;28;20214;-83
2023/05/06 11:06:36;;;;;;;0.60;0.60;;;23.20;90.90;;;;;;5073417;28;20566;-83
2023/05/06 11:09:04;;;;;;;0.83;0.60;;;23.00;92.10;;;;;;5073676;28;20191;-86
2023/05/06 11:11:50;;;;;;;0.73;0.50;;;22.80;91.70;;;;;;5073813;28;20237;-86
2023/05/06 11:14:26;;;;;;;0.60;0.50;;;22.40;90.90;;;;;;5073478;28;20219;-83
2023/05/06 11:16:56;;;;;;;0.73;0.70;;;22.20;91.80;;;;;;5073686;28;20433;-84
2023/05/06 11:19:24;;;;;;;0.80;0.60;;;22.00;91.20;;;;;;5073059;28;20454;-83
2023/05/06 11:21:52;;;;;;;0.63;0.60;;;21.80;90.90;;;;;;5073383;28;20514;-83
2023/05/06 11:24:24;;;;;;;0.40;0.40;;;21.70;90.50;;;;;;5072951;28;20796;-83
2023/05/06 11:26:51;;;;;;;0.50;0.50;;;21.60;92.00;;;;;;5073039;28;20436;-84
2023/05/06 11:29:18;;;;;;;0.50;0.50;;;21.40;91.10;;;;;;5073444;28;20445;-83
2023/05/06 11:31:45;;;;;;;0.60;0.50;;;21.30;91.30;;;;;;5073265;28;20472;-84
2023/05/06 11:34:21;;;;;;;0.60;0.60;;;21.40;93.60;;;;;;5073359;28;20846;-83
2023/05/06 11:36:59;;;;;;;0.83;0.83;;;21.50;94.50;;;;;;5072341;28;20912;-85
2023/05/06 11:39:29;;;;;;;0.80;0.70;;;21.70;96.00;;;;;;5073382;28;20548;-84
2023/05/06 11:41:57;;;;;;;0.73;0.60;;;21.60;94.90;;;;;;5073247;28;20469;-83
2023/05/06 11:44:25;;;;;;;1.83;0.80;;;21.60;94.40;;;;;;5073947;28;20449;-84
2023/05/06 11:46:55;;;;;;;0.90;0.53;;;21.80;95.10;;;;;;5073389;28;20449;-83
2023/05/06 11:49:24;;;;;;;0.60;0.50;;;21.80;94.00;;;;;;5073985;28;20456;-81
2023/05/06 11:51:51;;;;;;;0.80;0.80;;;21.70;95.60;;;;;;5073057;28;20473;-81
2023/05/06 11:54:21;;;;;;;1.47;0.60;;;21.70;95.60;;;;;;5073013;28;20483;-80
2023/05/06 11:56:49;;;;;;;0.60;0.60;;;21.80;95.50;;;;;;5073381;28;20532;-81
2023/05/06 11:59:17;;;;;;;0.50;0.50;;;22.00;93.80;;;;;;5073065;28;20440;-84
2023/05/06 12:01:44;;;;;;;0.97;0.60;;;22.10;94.50;;;;;;5072779;28;20492;-82
2023/05/06 12:04:12;;;;;;;0.97;0.67;;;22.10;94.00;;;;;;5073053;28;20453;-83
2023/05/06 12:06:40;;;;;;;1.97;0.70;;;22.10;95.10;;;;;;5072883;28;20440;-83
2023/05/06 12:09:12;;;;;;;1.17;0.70;;;22.10;93.80;;;;;;5072845;28;20821;-82
2023/05/06 12:11:40;;;;;;;0.50;0.50;;;22.10;94.40;;;;;;5072949;28;20473;-83
2023/05/06 12:14:08;;;;;;;0.50;0.50;;;22.20;94.00;;;;;;5072734;28;20484;-83
2023/05/06 12:16:36;;;;;;;0.63;0.60;;;22.00;94.40;;;;;;5072750;28;20441;-81
2023/05/06 12:19:04;;;;;;;0.97;0.87;;;21.80;93.80;;;;;;5072447;28;20456;-83
2023/05/06 12:21:31;;;;;;;0.70;0.70;;;21.80;96.00;;;;;;5072659;28;20642;-84
2023/05/06 12:24:00;;;;;;;1.87;1.03;;;21.60;94.60;;;;;;5072722;28;20449;-83
2023/05/06 12:26:29;;;;;;;2.63;0.80;;;21.40;95.30;;;;;;5072709;28;20502;-83
2023/05/06 12:29:07;;;;;;;0.80;0.77;;;21.30;96.60;;;;;;5072330;28;20803;-83
2023/05/06 12:31:34;;;;;;;0.60;0.60;;;21.20;96.20;;;;;;5072686;28;20468;-83
2023/05/06 12:34:01;;;;;;;0.83;0.60;;;21.10;96.80;;;;;;5072724;28;20507;-83
2023/05/06 12:36:27;;;;;;;0.60;0.60;;;21.20;97.40;;;;;;5072747;28;20467;-84
2023/05/06 12:38:56;;;;;;;0.93;0.70;;;21.40;96.00;;;;;;5072738;28;20480;-84
2023/05/06 12:41:26;;;;;;;0.90;0.80;;;21.50;95.90;;;;;;5072840;28;20436;-84
2023/05/06 12:43:52;;;;;;;0.70;0.70;;;21.50;95.10;;;;;;5072718;28;20451;-83
2023/05/06 12:46:19;;;;;;;0.80;0.60;;;21.40;95.70;;;;;;5072680;28;20440;-83
2023/05/06 12:48:59;;;;;;;0.83;0.83;;;21.40;96.50;;;;;;5074691;28;20441;-83
2023/05/06 12:51:26;;;;;;;0.60;0.60;;;21.50;94.60;;;;;;5076033;28;20507;-83